Pohnpei, Pohnpei International Airport (PTPN)

NamePohnpei International Airport
CityPohnpei
CountryMicronesia
ICAOPTPN
IATAPNI
Altitude3 m
CoordinatesGoogle Map
Live Air TrafficLiveATC.net
METARPTPN 120450Z 06015KT 15SM BKN018TCU OVC300 31/26 A2974 RMK TCU ALQDS LAST
2018-12-12 04:50:00 Wind: Northeast (60°) 7.72 m/s - Visibility: 24140.1 m - Temperature: 31 °C - Dew point: 26 °C - Humidity: 74.7% - Pressure: 1007.11 hPa
Statistics

The table below shows the detailed information of all flights to/from Pohnpei, Pohnpei International Airport (PTPN).